Oriana — ZCDU9 — position and weather

sailwx.info

Track history (hours):
 
Tides and Currents Weather Stations Pressure Air Temp Water Temp Dewpoint Dewpoint Depression Visibility Wind Speed Wind Dir Waves Ship Positions

Oriana (Bermuda)

Last reported at 2017-Jul-21 02:30 UTC. Time now 2017-Jul-21 02:30 UTC.
Position N 49°37' W 000°27'.

Length 261 m; beam 32.2 m; draft 8.2 m.

Type: Ship. MMSI: 310529000.

Date/timePositionNaut miles runAvg speedWind from/ knotsBaromVisibWave heightAir tempDewpointWater temp
2017-Jul-21 02:30N 49°37' W 000°27'1612.5
2017-Jul-21 01:15N 49°46' W 000°48'310.6
2017-Jul-21 00:58N 49°48' W 000°51'510.3
2017-Jul-21 00:30N 49°50' W 000°57'5 9.9
2017-Jul-21 00:00N 49°53' W 001°04'5 9.6
2017-Jul-20 23:30N 49°55' W 001°10'5 9.3
2017-Jul-20 23:00N 49°57' W 001°17'5 9.4
2017-Jul-20 22:30N 49°58' W 001°24'5 9.7
2017-Jul-20 22:00N 49°58' W 001°32'5 9.9
2017-Jul-20 21:30N 49°58' W 001°39'510.7
2017-Jul-20 21:00N 49°58' W 001°48'611.3
2017-Jul-20 20:30N 49°58' W 001°56'612.1
2017-Jul-20 19:59N 49°58' W 002°06'712.7
2017-Jul-20 19:28N 49°57' W 002°17'813.1
2017-Jul-20 18:51N 49°56' W 002°29'513.2
2017-Jul-20 18:30N 49°55' W 002°36'713.5
2017-Jul-20 18:00N 49°53' W 002°46'713.4
2017-Jul-20 17:30N 49°51' W 002°56'713.4
2017-Jul-20 17:01N 49°52' W 003°06'4216.4
2017-Jul-20 17:00N 49°48' W 003°06'815.9 240 / 201013.310.8 17.011.517.0
2017-Jul-20 16:30N 49°51' W 003°17'713.4
2017-Jul-20 16:00N 49°51' W 003°27'713.2
2017-Jul-20 15:30N 49°51' W 003°37'713.2
2017-Jul-20 15:01N 49°51' W 003°48'1313.1
2017-Jul-20 14:00N 49°50' W 004°08'713.0
2017-Jul-20 13:30N 49°49' W 004°18'612.3
2017-Jul-20 13:00N 49°51' W 004°27'612.2
2017-Jul-20 12:30N 49°53' W 004°36'611.9
2017-Jul-20 12:00N 49°55' W 004°45'611.3
2017-Jul-20 11:30N 49°58' W 004°52'510.2
2017-Jul-20 11:00N 50°03' W 004°48'510.6
2017-Jul-20 10:31N 50°07' W 004°42'611.0
2017-Jul-20 10:00N 50°11' W 004°36'611.2
2017-Jul-20 09:30N 50°13' W 004°29'611.2
2017-Jul-20 09:00N 50°15' W 004°21'611.4
2017-Jul-20 08:30N 50°13' W 004°13'611.2
2017-Jul-20 08:00N 50°10' W 004°05'510.8
2017-Jul-20 07:30N 50°07' W 003°58'510.7
2017-Jul-20 07:01N 50°05' W 003°51'510.2
2017-Jul-20 06:30N 50°02' W 003°43'5 9.9
2017-Jul-20 06:00N 50°00' W 003°37'5 9.1
2017-Jul-20 05:30N 50°00' W 003°29'5 9.8
2017-Jul-20 05:00N 50°03' W 003°23'5 9.7
2017-Jul-20 04:30N 50°06' W 003°17'5 9.5
2017-Jul-20 04:00N 50°09' W 003°11'4280.4
2017-Jul-20 04:00N 50°06' W 003°06'511.1 280 / 271008.310.8 15.013.215.0
2017-Jul-20 03:30N 50°11' W 003°05'5 9.3
2017-Jul-20 03:00N 50°13' W 002°58'5 9.6
2017-Jul-20 02:30N 50°14' W 002°51'510.0
2017-Jul-20 02:00N 50°15' W 002°43'510.3
2017-Jul-20 01:30N 50°16' W 002°35'510.9
2017-Jul-20 01:00N 50°16' W 002°27'611.4
2017-Jul-20 00:29N 50°17' W 002°17'1212.3
2017-Jul-19 23:32N 50°18' W 001°59'013.2
2017-Jul-19 23:30N 50°18' W 001°58'612.9
2017-Jul-19 23:00N 50°19' W 001°49'713.2
2017-Jul-19 22:30N 50°21' W 001°39'713.4
2017-Jul-19 22:00N 50°22' W 001°28'713.1
2017-Jul-19 21:30N 50°24' W 001°18'612.9
2017-Jul-19 21:00N 50°27' W 001°10'612.4
2017-Jul-19 20:30N 50°31' W 001°02'611.1
2017-Jul-19 20:00N 50°36' W 000°59'611.1
2017-Jul-19 19:30N 50°42' W 000°58'611.6
2017-Jul-19 19:01N 50°45' W 001°06'815.2
2017-Jul-19 18:31N 50°47' W 001°18'5 9.2
2017-Jul-19 18:00N 50°51' W 001°20'4 8.6
2017-Jul-19 17:30N 50°54' W 001°25'1 1.3
2017-Jul-19 16:59N 50°54' W 001°26'0 0.0
2017-Jul-19 16:26N 50°54' W 001°26'0 0.0
2017-Jul-19 15:35N 50°54' W 001°26'0 0.0
2017-Jul-19 15:26N 50°54' W 001°26'0 0.0
2017-Jul-19 14:59N 50°54' W 001°26'0 0.0
2017-Jul-19 14:26N 50°54' W 001°26'0 0.0
2017-Jul-19 13:59N 50°54' W 001°26'0 0.0
2017-Jul-19 13:08N 50°54' W 001°26'0 0.0
2017-Jul-19 12:41N 50°54' W 001°26'0 0.0
2017-Jul-19 12:29N 50°54' W 001°26'0 0.0
2017-Jul-19 11:11N 50°54' W 001°26'0 0.0
2017-Jul-19 10:59N 50°54' W 001°26'0 0.0
2017-Jul-19 10:26N 50°54' W 001°26'0 0.0
2017-Jul-19 09:08N 50°54' W 001°26'0 0.0
2017-Jul-19 08:56N 50°54' W 001°26'0 0.0
2017-Jul-19 08:20N 50°54' W 001°26'0 0.0
2017-Jul-19 07:50N 50°54' W 001°26'0 0.0
2017-Jul-19 07:26N 50°54' W 001°26'0 0.0
2017-Jul-19 06:53N 50°54' W 001°26'0 0.0
2017-Jul-19 06:26N 50°54' W 001°26'0 0.0
2017-Jul-19 05:50N 50°54' W 001°26'0 0.0
2017-Jul-19 05:30N 50°54' W 001°26'2 3.2
2017-Jul-19 05:00N 50°53' W 001°24'5 9.0
2017-Jul-19 04:30N 50°50' W 001°19'4 8.7
2017-Jul-19 04:00N 50°46' W 001°16'815.2
2017-Jul-19 03:30N 50°44' W 001°04'611.5
2017-Jul-19 03:00N 50°40' W 000°59'611.2
2017-Jul-19 02:30N 50°34' W 000°60'816.4
2017-Jul-19 02:00N 50°31' W 001°12'918.0
2017-Jul-19 01:31N 50°27' W 001°24'918.2
2017-Jul-19 01:00N 50°23' W 001°38'918.3
2017-Jul-19 00:30N 50°20' W 001°51'918.8
2017-Jul-19 00:00N 50°16' W 002°04'817.0
2017-Jul-18 23:30N 50°08' W 002°10'917.5
2017-Jul-18 23:00N 50°00' W 002°17'816.4
2017-Jul-18 22:30N 49°56' W 002°27'917.1
2017-Jul-18 22:00N 49°54' W 002°40'816.6
2017-Jul-18 21:30N 49°51' W 002°52'816.8
2017-Jul-18 21:01N 49°45' W 003°02'917.5
2017-Jul-18 20:30N 49°40' W 003°13'917.8
2017-Jul-18 20:00N 49°35' W 003°24'918.2
2017-Jul-18 19:30N 49°29' W 003°34'918.2
2017-Jul-18 19:00N 49°23' W 003°46'918.3
2017-Jul-18 18:30N 49°18' W 003°57'918.2
2017-Jul-18 18:00N 49°13' W 004°08'1118.2
2017-Jul-18 17:24N 49°06' W 004°22'818.1
2017-Jul-18 16:59N 49°01' W 004°31'918.2
2017-Jul-18 16:29N 48°56' W 004°42'817.8
2017-Jul-18 16:01N 48°51' W 004°52'917.9
2017-Jul-18 15:30N 48°45' W 005°03'918.1
2017-Jul-18 15:00N 48°39' W 005°13'1918.7
2017-Jul-18 14:00N 48°24' W 005°31'3819.0
2017-Jul-18 11:58N 47°51' W 006°00'32519.2
2017-Jul-17 19:03N 43°08' W 009°48'6114.3
2017-Jul-17 19:00N 43°12' W 009°42'6421.2 290 / 51013.7 16.516.517.0
2017-Jul-17 15:57N 42°08' W 009°50'919.8
2017-Jul-17 15:30N 41°59' W 009°50'1019.8
2017-Jul-17 15:00N 41°49' W 009°50'1019.5
2017-Jul-17 14:29N 41°39' W 009°50'1219.6
2017-Jul-17 13:51N 41°27' W 009°49'719.6
2017-Jul-17 13:30N 41°20' W 009°49'1019.7
2017-Jul-17 13:00N 41°10' W 009°49'1019.6
2017-Jul-17 12:30N 41°00' W 009°50'1019.6
2017-Jul-17 12:00N 40°50' W 009°51'1019.7
2017-Jul-17 11:30N 40°41' W 009°51'1020.1
2017-Jul-17 11:00N 40°31' W 009°51'1019.5
2017-Jul-17 10:30N 40°21' W 009°51'1019.9
2017-Jul-17 10:00N 40°11' W 009°53'1019.5
2017-Jul-17 09:30N 40°01' W 009°53'1019.6
2017-Jul-17 09:00N 39°51' W 009°52'1019.8
2017-Jul-17 08:30N 39°41' W 009°52'1019.3
2017-Jul-17 08:00N 39°32' W 009°53'1019.8
2017-Jul-17 07:30N 39°22' W 009°52'1019.7
2017-Jul-17 07:00N 39°12' W 009°51'1019.5
2017-Jul-17 06:30N 39°02' W 009°51'1019.6
2017-Jul-17 06:00N 38°53' W 009°52'1020.0
2017-Jul-17 05:30N 38°43' W 009°50'1019.4
2017-Jul-17 05:00N 38°33' W 009°49'1019.1
2017-Jul-17 04:30N 38°24' W 009°46'1019.0
2017-Jul-17 04:00N 38°14' W 009°43'1019.3
2017-Jul-17 03:30N 38°05' W 009°41'1019.2
2017-Jul-17 03:00N 37°56' W 009°38'919.0
2017-Jul-17 02:30N 37°46' W 009°35'918.6
2017-Jul-17 02:00N 37°37' W 009°33'918.4
2017-Jul-17 01:30N 37°28' W 009°30'1019.0
2017-Jul-17 01:00N 37°19' W 009°28'1019.1
2017-Jul-17 00:30N 37°10' W 009°25'918.9
2017-Jul-17 00:00N 37°01' W 009°22'918.4
2017-Jul-16 23:30N 36°52' W 009°19'918.3
2017-Jul-16 23:00N 36°45' W 009°12'917.7
2017-Jul-16 22:30N 36°42' W 009°01'1018.6
2017-Jul-16 22:00N 36°41' W 008°49'918.8
2017-Jul-16 21:30N 36°41' W 008°38'1018.6
2017-Jul-16 20:58N 36°40' W 008°26'1018.8
2017-Jul-16 20:25N 36°40' W 008°13'819.3
2017-Jul-16 20:00N 36°39' W 008°03'121899.7
2017-Jul-16 20:00N 36°36' W 007°48'3 5.4 280 / 111015.110.8 22.519.422.0
2017-Jul-16 19:27N 36°39' W 007°50'919.4
2017-Jul-16 18:58N 36°38' W 007°38'1019.7
2017-Jul-16 18:27N 36°38' W 007°25'919.8
2017-Jul-16 17:59N 36°37' W 007°14'1319.8
2017-Jul-16 17:19N 36°36' W 006°57'719.6
2017-Jul-16 16:59N 36°36' W 006°49'2416.4
2017-Jul-16 15:33N 36°34' W 006°20'111.4
2017-Jul-16 15:26N 36°34' W 006°18'1 2.1
2017-Jul-16 14:43N 36°32' W 006°17'0 0.0
2017-Jul-16 14:27N 36°32' W 006°17'0 0.0
2017-Jul-16 09:09N 36°32' W 006°17'0 0.0
2017-Jul-16 08:59N 36°32' W 006°17'0 0.0
2017-Jul-16 07:23N 36°32' W 006°17'0 0.0
2017-Jul-16 06:53N 36°32' W 006°17'0 0.0
2017-Jul-16 06:30N 36°32' W 006°17'0 0.0
2017-Jul-16 05:47N 36°32' W 006°17'0 0.2
2017-Jul-16 05:30N 36°32' W 006°17'1 2.3
2017-Jul-16 05:00N 36°33' W 006°17'2511.4
2017-Jul-16 02:51N 36°09' W 006°22'1116.2
2017-Jul-16 02:10N 35°59' W 006°16'27315.6
2017-Jul-15 08:40N 37°20' W 000°52'316.7
2017-Jul-15 08:28N 37°23' W 000°49'1016.6
2017-Jul-15 07:51N 37°30' W 000°40'616.8
2017-Jul-15 07:30N 37°34' W 000°34'917.2
2017-Jul-15 07:00N 37°40' W 000°27'917.3
2017-Jul-15 06:30N 37°48' W 000°22'917.5
2017-Jul-15 06:00N 37°55' W 000°15'917.6
2017-Jul-15 05:30N 38°02' W 000°09'1617.2
2017-Jul-15 04:35N 38°15' E 000°02'717.1
2017-Jul-15 04:12N 38°21' E 000°06'317.2
2017-Jul-15 04:00N 38°24' E 000°08'1217.1
2017-Jul-15 03:17N 38°35' E 000°17'1216.9
2017-Jul-15 02:35N 38°45' E 000°24'116.9
2017-Jul-15 02:30N 38°46' E 000°25'917.0
2017-Jul-15 01:59N 38°54' E 000°30'1417.0
2017-Jul-15 01:08N 39°06' E 000°39'317.1
2017-Jul-15 00:59N 39°09' E 000°41'817.3
2017-Jul-15 00:30N 39°16' E 000°46'1017.2
2017-Jul-14 23:55N 39°25' E 000°52'1817.0
2017-Jul-14 22:52N 39°40' E 001°03'616.9
2017-Jul-14 22:30N 39°46' E 001°07'816.5
2017-Jul-14 22:00N 39°54' E 001°11'816.4
2017-Jul-14 21:30N 40°01' E 001°15'816.5
2017-Jul-14 21:00N 40°09' E 001°20'816.8
2017-Jul-14 20:30N 40°16' E 001°24'917.0
2017-Jul-14 20:00N 40°23' E 001°30'917.4
2017-Jul-14 19:30N 40°31' E 001°36'917.3
2017-Jul-14 19:00N 40°38' E 001°42'917.2
2017-Jul-14 18:30N 40°45' E 001°49'917.1
2017-Jul-14 18:00N 40°53' E 001°54'817.2
2017-Jul-14 17:30N 41°00' E 001°60'917.4
2017-Jul-14 17:00N 41°08' E 002°06'1014.7
2017-Jul-14 16:21N 41°17' E 002°11'410.2
2017-Jul-14 15:58N 41°21' E 002°10'1 0.1
2017-Jul-14 06:03N 41°21' E 002°10'0 0.0
2017-Jul-14 05:56N 41°21' E 002°10'0 0.6
2017-Jul-14 05:29N 41°21' E 002°10'2 3.2
2017-Jul-14 05:00N 41°19' E 002°10'3 6.5
2017-Jul-14 04:30N 41°16' E 002°12'4 7.6
2017-Jul-14 04:00N 41°16' E 002°17'815.3
2017-Jul-14 03:30N 41°20' E 002°26'916.6
2017-Jul-14 02:59N 41°24' E 002°36'1016.5
2017-Jul-14 02:23N 41°29' E 002°47'816.6
2017-Jul-14 01:55N 41°32' E 002°57'917.0
2017-Jul-14 01:23N 41°37' E 003°08'816.6
2017-Jul-14 00:54N 41°40' E 003°17'9417.4
2017-Jul-13 19:30N 42°29' E 005°05'917.1
2017-Jul-13 19:00N 42°33' E 005°15'817.1
2017-Jul-13 18:30N 42°38' E 005°25'917.1
2017-Jul-13 18:00N 42°42' E 005°35'1117.2
2017-Jul-13 17:23N 42°48' E 005°47'1815.3
2017-Jul-13 16:12N 43°04' E 005°59'211.1
2017-Jul-13 16:00N 43°05' E 005°56'2 3.4
2017-Jul-13 15:30N 43°07' E 005°56'0 0.0
2017-Jul-13 15:00N 43°07' E 005°56'0 0.0
2017-Jul-13 14:30N 43°07' E 005°56'0 0.0
2017-Jul-13 14:00N 43°07' E 005°56'0 0.0
2017-Jul-13 13:29N 43°07' E 005°56'0 0.0
2017-Jul-13 12:58N 43°07' E 005°56'0 0.0
2017-Jul-13 12:30N 43°07' E 005°56'0 0.0
2017-Jul-13 12:00N 43°07' E 005°56'0 0.0
2017-Jul-13 11:28N 43°07' E 005°56'0 0.0
2017-Jul-13 10:58N 43°07' E 005°56'0 0.0
2017-Jul-13 10:27N 43°07' E 005°56'0 0.0
2017-Jul-13 10:00N 43°07' E 005°56'0 0.0
2017-Jul-13 09:30N 43°07' E 005°56'0 0.0
2017-Jul-13 09:00N 43°07' E 005°56'0 0.0
2017-Jul-13 08:30N 43°07' E 005°56'0 0.0
2017-Jul-13 07:59N 43°07' E 005°56'0 0.0
2017-Jul-13 07:30N 43°07' E 005°56'0 0.0
2017-Jul-13 07:01N 43°07' E 005°56'1 1.6
2017-Jul-13 06:31N 43°07' E 005°55'0 0.7
2017-Jul-13 06:00N 43°06' E 005°55'3 5.8
2017-Jul-13 05:30N 43°05' E 005°58'2211.7
2017-Jul-13 03:39N 42°54' E 006°24'315.3
2017-Jul-13 03:28N 42°54' E 006°28'715.7
2017-Jul-13 03:00N 42°57' E 006°36'816.4
2017-Jul-13 02:30N 43°01' E 006°46'816.4
2017-Jul-13 02:00N 43°06' E 006°56'816.7
2017-Jul-13 01:30N 43°10' E 007°05'816.7
2017-Jul-13 01:00N 43°14' E 007°15'816.7
2017-Jul-13 00:30N 43°19' E 007°25'917.0
2017-Jul-12 23:59N 43°25' E 007°34'817.0
2017-Jul-12 23:30N 43°28' E 007°44'917.1
2017-Jul-12 23:00N 43°33' E 007°54'817.1
2017-Jul-12 22:30N 43°37' E 008°04'917.1
2017-Jul-12 21:59N 43°42' E 008°15'817.0
2017-Jul-12 21:30N 43°47' E 008°24'612.8
2017-Jul-12 21:01N 43°50' E 008°31'612.9
2017-Jul-12 20:30N 43°54' E 008°38'612.8
2017-Jul-12 20:01N 43°58' E 008°46'4266.6
2017-Jul-12 20:00N 43°54' E 008°42'1122.1 060 / 71013.310.8 24.022.524.0
2017-Jul-12 19:31N 44°01' E 008°53'612.6
2017-Jul-12 19:01N 44°05' E 009°00'612.6
2017-Jul-12 18:31N 44°08' E 009°07'612.4
2017-Jul-12 18:01N 44°12' E 009°14'510.8
2017-Jul-12 17:30N 44°16' E 009°19'510.3
2017-Jul-12 17:00N 44°20' E 009°14'0 0.2
2017-Jul-12 15:47N 44°20' E 009°14'0 0.0
2017-Jul-12 15:23N 44°20' E 009°14'0 0.0
2017-Jul-12 14:53N 44°20' E 009°14'0 0.0
2017-Jul-12 13:56N 44°20' E 009°14'0 0.0
2017-Jul-12 12:32N 44°20' E 009°14'0 0.0
2017-Jul-12 12:05N 44°20' E 009°14'0 0.0
2017-Jul-12 11:32N 44°20' E 009°14'0 0.1
2017-Jul-12 11:26N 44°20' E 009°14'0 0.1
2017-Jul-12 10:47N 44°20' E 009°14'0 0.0
2017-Jul-12 09:05N 44°20' E 009°14'0 0.0
2017-Jul-12 07:59N 44°20' E 009°14'0 0.0
2017-Jul-12 07:29N 44°20' E 009°14'0 0.1
2017-Jul-12 06:47N 44°20' E 009°14'0 0.1
2017-Jul-12 06:17N 44°20' E 009°14'0 0.0
2017-Jul-12 05:00N 44°20' E 009°14'3 7.0
2017-Jul-12 04:30N 44°18' E 009°18'510.1
2017-Jul-12 03:58N 44°12' E 009°19'612.0
2017-Jul-12 03:30N 44°07' E 009°17'511.0
2017-Jul-12 03:00N 44°03' E 009°11'611.8
2017-Jul-12 02:30N 44°02' E 009°03'611.7
2017-Jul-12 02:00N 44°01' E 008°55'611.5
2017-Jul-12 01:30N 43°60' E 008°47'5 9.7
2017-Jul-12 01:00N 43°56' E 008°43'510.3
2017-Jul-12 00:30N 43°51' E 008°43'510.1
2017-Jul-12 00:00N 43°46' E 008°43'5 9.2
2017-Jul-11 23:30N 43°45' E 008°49'510.6
2017-Jul-11 23:00N 43°45' E 008°56'510.7
2017-Jul-11 22:30N 43°44' E 009°03'510.5
2017-Jul-11 22:00N 43°44' E 009°11'510.4
2017-Jul-11 21:30N 43°44' E 009°18'5 9.9
2017-Jul-11 21:00N 43°42' E 009°24'510.1
2017-Jul-11 20:30N 43°40' E 009°30'510.4
2017-Jul-11 20:00N 43°38' E 009°37'510.4
2017-Jul-11 19:30N 43°36' E 009°44'510.5
2017-Jul-11 19:00N 43°34' E 009°51'510.5
2017-Jul-11 18:30N 43°33' E 009°58'510.4
2017-Jul-11 18:00N 43°31' E 010°04'510.2
2017-Jul-11 17:30N 43°31' E 010°11'5 9.2
2017-Jul-11 17:00N 43°33' E 010°17'1 1.0
2017-Jul-11 16:27N 43°33' E 010°18'0 0.0
2017-Jul-11 15:59N 43°33' E 010°18'0 0.0
2017-Jul-11 15:29N 43°33' E 010°18'0 0.0
2017-Jul-11 14:53N 43°33' E 010°18'0 0.0
2017-Jul-11 14:26N 43°33' E 010°18'0 0.0
2017-Jul-11 13:59N 43°33' E 010°18'0 0.0
2017-Jul-11 13:29N 43°33' E 010°18'0 0.0
2017-Jul-11 12:59N 43°33' E 010°18'0 0.0
2017-Jul-11 12:29N 43°33' E 010°18'0 0.0
2017-Jul-11 12:00N 43°33' E 010°18'0 0.0
2017-Jul-11 11:30N 43°33' E 010°18'0 0.0
2017-Jul-11 11:00N 43°33' E 010°18'0 0.0
2017-Jul-11 10:30N 43°33' E 010°18'0 0.0
2017-Jul-11 10:00N 43°33' E 010°18'0 0.0
2017-Jul-11 09:30N 43°33' E 010°18'0 0.0
2017-Jul-11 09:00N 43°33' E 010°18'0 0.0
2017-Jul-11 08:30N 43°33' E 010°18'0 0.0
2017-Jul-11 08:00N 43°33' E 010°18'0 0.0
2017-Jul-11 07:30N 43°33' E 010°18'0 0.0
2017-Jul-11 07:00N 43°33' E 010°18'0 0.0
2017-Jul-11 06:30N 43°33' E 010°18'0 0.0
2017-Jul-11 05:51N 43°33' E 010°18'0 0.0
2017-Jul-11 05:27N 43°33' E 010°18'0 0.0
2017-Jul-11 05:00N 43°33' E 010°18'0 0.1
2017-Jul-11 04:30N 43°33' E 010°18'1 2.2
2017-Jul-11 04:00N 43°32' E 010°17'5 9.3
2017-Jul-11 03:30N 43°29' E 010°12'714.6
2017-Jul-11 03:00N 43°22' E 010°10'713.9
2017-Jul-11 02:31N 43°15' E 010°07'  
Track history (hours):
 
Tides and Currents Weather Stations Pressure Air Temp Water Temp Dewpoint Dewpoint Depression Visibility Wind Speed Wind Dir Waves Ship Positions

Oriana (Bermuda)

Last reported at 2017-Jul-21 02:30 UTC. Time now 2017-Jul-21 02:30 UTC.
Position N 49°37' W 000°27'.

Length 261 m; beam 32.2 m; draft 8.2 m.

Type: Ship. MMSI: 310529000.

Date/timePositionNaut miles runAvg speedWind from/ knotsBaromVisibWave heightAir tempDewpointWater temp
2017-Jul-21 02:30N 49°37' W 000°27'1612.5
2017-Jul-21 01:15N 49°46' W 000°48'310.6
2017-Jul-21 00:58N 49°48' W 000°51'510.3
2017-Jul-21 00:30N 49°50' W 000°57'5 9.9
2017-Jul-21 00:00N 49°53' W 001°04'5 9.6
2017-Jul-20 23:30N 49°55' W 001°10'5 9.3
2017-Jul-20 23:00N 49°57' W 001°17'5 9.4
2017-Jul-20 22:30N 49°58' W 001°24'5 9.7
2017-Jul-20 22:00N 49°58' W 001°32'5 9.9
2017-Jul-20 21:30N 49°58' W 001°39'510.7
2017-Jul-20 21:00N 49°58' W 001°48'611.3
2017-Jul-20 20:30N 49°58' W 001°56'612.1
2017-Jul-20 19:59N 49°58' W 002°06'712.7
2017-Jul-20 19:28N 49°57' W 002°17'813.1
2017-Jul-20 18:51N 49°56' W 002°29'513.2
2017-Jul-20 18:30N 49°55' W 002°36'713.5
2017-Jul-20 18:00N 49°53' W 002°46'713.4
2017-Jul-20 17:30N 49°51' W 002°56'713.4
2017-Jul-20 17:01N 49°52' W 003°06'4216.4
2017-Jul-20 17:00N 49°48' W 003°06'815.9 240 / 201013.310.8 17.011.517.0
2017-Jul-20 16:30N 49°51' W 003°17'713.4
2017-Jul-20 16:00N 49°51' W 003°27'713.2
2017-Jul-20 15:30N 49°51' W 003°37'713.2
2017-Jul-20 15:01N 49°51' W 003°48'1313.1
2017-Jul-20 14:00N 49°50' W 004°08'713.0
2017-Jul-20 13:30N 49°49' W 004°18'612.3
2017-Jul-20 13:00N 49°51' W 004°27'612.2
2017-Jul-20 12:30N 49°53' W 004°36'611.9
2017-Jul-20 12:00N 49°55' W 004°45'611.3
2017-Jul-20 11:30N 49°58' W 004°52'510.2
2017-Jul-20 11:00N 50°03' W 004°48'510.6
2017-Jul-20 10:31N 50°07' W 004°42'611.0
2017-Jul-20 10:00N 50°11' W 004°36'611.2
2017-Jul-20 09:30N 50°13' W 004°29'611.2
2017-Jul-20 09:00N 50°15' W 004°21'611.4
2017-Jul-20 08:30N 50°13' W 004°13'611.2
2017-Jul-20 08:00N 50°10' W 004°05'510.8
2017-Jul-20 07:30N 50°07' W 003°58'510.7
2017-Jul-20 07:01N 50°05' W 003°51'510.2
2017-Jul-20 06:30N 50°02' W 003°43'5 9.9
2017-Jul-20 06:00N 50°00' W 003°37'5 9.1
2017-Jul-20 05:30N 50°00' W 003°29'5 9.8
2017-Jul-20 05:00N 50°03' W 003°23'5 9.7
2017-Jul-20 04:30N 50°06' W 003°17'5 9.5
2017-Jul-20 04:00N 50°09' W 003°11'4280.4
2017-Jul-20 04:00N 50°06' W 003°06'511.1 280 / 271008.310.8 15.013.215.0
2017-Jul-20 03:30N 50°11' W 003°05'5 9.3
2017-Jul-20 03:00N 50°13' W 002°58'5 9.6
2017-Jul-20 02:30N 50°14' W 002°51'510.0
2017-Jul-20 02:00N 50°15' W 002°43'510.3
2017-Jul-20 01:30N 50°16' W 002°35'510.9
2017-Jul-20 01:00N 50°16' W 002°27'611.4
2017-Jul-20 00:29N 50°17' W 002°17'1212.3
2017-Jul-19 23:32N 50°18' W 001°59'013.2
2017-Jul-19 23:30N 50°18' W 001°58'612.9
2017-Jul-19 23:00N 50°19' W 001°49'713.2
2017-Jul-19 22:30N 50°21' W 001°39'713.4
2017-Jul-19 22:00N 50°22' W 001°28'713.1
2017-Jul-19 21:30N 50°24' W 001°18'612.9
2017-Jul-19 21:00N 50°27' W 001°10'612.4
2017-Jul-19 20:30N 50°31' W 001°02'611.1
2017-Jul-19 20:00N 50°36' W 000°59'611.1
2017-Jul-19 19:30N 50°42' W 000°58'611.6
2017-Jul-19 19:01N 50°45' W 001°06'815.2
2017-Jul-19 18:31N 50°47' W 001°18'5 9.2
2017-Jul-19 18:00N 50°51' W 001°20'4 8.6
2017-Jul-19 17:30N 50°54' W 001°25'1 1.3
2017-Jul-19 16:59N 50°54' W 001°26'0 0.0
2017-Jul-19 16:26N 50°54' W 001°26'0 0.0
2017-Jul-19 15:35N 50°54' W 001°26'0 0.0
2017-Jul-19 15:26N 50°54' W 001°26'0 0.0
2017-Jul-19 14:59N 50°54' W 001°26'0 0.0
2017-Jul-19 14:26N 50°54' W 001°26'0 0.0
2017-Jul-19 13:59N 50°54' W 001°26'0 0.0
2017-Jul-19 13:08N 50°54' W 001°26'0 0.0
2017-Jul-19 12:41N 50°54' W 001°26'0 0.0
2017-Jul-19 12:29N 50°54' W 001°26'0 0.0
2017-Jul-19 11:11N 50°54' W 001°26'0 0.0
2017-Jul-19 10:59N 50°54' W 001°26'0 0.0
2017-Jul-19 10:26N 50°54' W 001°26'0 0.0
2017-Jul-19 09:08N 50°54' W 001°26'0 0.0
2017-Jul-19 08:56N 50°54' W 001°26'0 0.0
2017-Jul-19 08:20N 50°54' W 001°26'0 0.0
2017-Jul-19 07:50N 50°54' W 001°26'0 0.0
2017-Jul-19 07:26N 50°54' W 001°26'0 0.0
2017-Jul-19 06:53N 50°54' W 001°26'0 0.0
2017-Jul-19 06:26N 50°54' W 001°26'0 0.0
2017-Jul-19 05:50N 50°54' W 001°26'0 0.0
2017-Jul-19 05:30N 50°54' W 001°26'2 3.2
2017-Jul-19 05:00N 50°53' W 001°24'5 9.0
2017-Jul-19 04:30N 50°50' W 001°19'4 8.7
2017-Jul-19 04:00N 50°46' W 001°16'815.2
2017-Jul-19 03:30N 50°44' W 001°04'611.5
2017-Jul-19 03:00N 50°40' W 000°59'611.2
2017-Jul-19 02:30N 50°34' W 000°60'816.4
2017-Jul-19 02:00N 50°31' W 001°12'918.0
2017-Jul-19 01:31N 50°27' W 001°24'918.2
2017-Jul-19 01:00N 50°23' W 001°38'918.3
2017-Jul-19 00:30N 50°20' W 001°51'918.8
2017-Jul-19 00:00N 50°16' W 002°04'817.0
2017-Jul-18 23:30N 50°08' W 002°10'917.5
2017-Jul-18 23:00N 50°00' W 002°17'816.4
2017-Jul-18 22:30N 49°56' W 002°27'917.1
2017-Jul-18 22:00N 49°54' W 002°40'816.6
2017-Jul-18 21:30N 49°51' W 002°52'816.8
2017-Jul-18 21:01N 49°45' W 003°02'917.5
2017-Jul-18 20:30N 49°40' W 003°13'917.8
2017-Jul-18 20:00N 49°35' W 003°24'918.2
2017-Jul-18 19:30N 49°29' W 003°34'918.2
2017-Jul-18 19:00N 49°23' W 003°46'918.3
2017-Jul-18 18:30N 49°18' W 003°57'918.2
2017-Jul-18 18:00N 49°13' W 004°08'1118.2
2017-Jul-18 17:24N 49°06' W 004°22'818.1
2017-Jul-18 16:59N 49°01' W 004°31'918.2
2017-Jul-18 16:29N 48°56' W 004°42'817.8
2017-Jul-18 16:01N 48°51' W 004°52'917.9
2017-Jul-18 15:30N 48°45' W 005°03'918.1
2017-Jul-18 15:00N 48°39' W 005°13'1918.7
2017-Jul-18 14:00N 48°24' W 005°31'3819.0
2017-Jul-18 11:58N 47°51' W 006°00'32519.2
2017-Jul-17 19:03N 43°08' W 009°48'6114.3
2017-Jul-17 19:00N 43°12' W 009°42'6421.2 290 / 51013.7 16.516.517.0
2017-Jul-17 15:57N 42°08' W 009°50'919.8
2017-Jul-17 15:30N 41°59' W 009°50'1019.8
2017-Jul-17 15:00N 41°49' W 009°50'1019.5
2017-Jul-17 14:29N 41°39' W 009°50'1219.6
2017-Jul-17 13:51N 41°27' W 009°49'719.6
2017-Jul-17 13:30N 41°20' W 009°49'1019.7
2017-Jul-17 13:00N 41°10' W 009°49'1019.6
2017-Jul-17 12:30N 41°00' W 009°50'1019.6
2017-Jul-17 12:00N 40°50' W 009°51'1019.7
2017-Jul-17 11:30N 40°41' W 009°51'1020.1
2017-Jul-17 11:00N 40°31' W 009°51'1019.5
2017-Jul-17 10:30N 40°21' W 009°51'1019.9
2017-Jul-17 10:00N 40°11' W 009°53'1019.5
2017-Jul-17 09:30N 40°01' W 009°53'1019.6
2017-Jul-17 09:00N 39°51' W 009°52'1019.8
2017-Jul-17 08:30N 39°41' W 009°52'1019.3
2017-Jul-17 08:00N 39°32' W 009°53'1019.8
2017-Jul-17 07:30N 39°22' W 009°52'1019.7
2017-Jul-17 07:00N 39°12' W 009°51'1019.5
2017-Jul-17 06:30N 39°02' W 009°51'1019.6
2017-Jul-17 06:00N 38°53' W 009°52'1020.0
2017-Jul-17 05:30N 38°43' W 009°50'1019.4
2017-Jul-17 05:00N 38°33' W 009°49'1019.1
2017-Jul-17 04:30N 38°24' W 009°46'1019.0
2017-Jul-17 04:00N 38°14' W 009°43'1019.3
2017-Jul-17 03:30N 38°05' W 009°41'1019.2
2017-Jul-17 03:00N 37°56' W 009°38'919.0
2017-Jul-17 02:30N 37°46' W 009°35'918.6
2017-Jul-17 02:00N 37°37' W 009°33'918.4
2017-Jul-17 01:30N 37°28' W 009°30'1019.0
2017-Jul-17 01:00N 37°19' W 009°28'1019.1
2017-Jul-17 00:30N 37°10' W 009°25'918.9
2017-Jul-17 00:00N 37°01' W 009°22'918.4
2017-Jul-16 23:30N 36°52' W 009°19'918.3
2017-Jul-16 23:00N 36°45' W 009°12'917.7
2017-Jul-16 22:30N 36°42' W 009°01'1018.6
2017-Jul-16 22:00N 36°41' W 008°49'918.8
2017-Jul-16 21:30N 36°41' W 008°38'1018.6
2017-Jul-16 20:58N 36°40' W 008°26'1018.8
2017-Jul-16 20:25N 36°40' W 008°13'819.3
2017-Jul-16 20:00N 36°39' W 008°03'121899.7
2017-Jul-16 20:00N 36°36' W 007°48'3 5.4 280 / 111015.110.8 22.519.422.0
2017-Jul-16 19:27N 36°39' W 007°50'919.4
2017-Jul-16 18:58N 36°38' W 007°38'1019.7
2017-Jul-16 18:27N 36°38' W 007°25'919.8
2017-Jul-16 17:59N 36°37' W 007°14'1319.8
2017-Jul-16 17:19N 36°36' W 006°57'719.6
2017-Jul-16 16:59N 36°36' W 006°49'2416.4
2017-Jul-16 15:33N 36°34' W 006°20'111.4
2017-Jul-16 15:26N 36°34' W 006°18'1 2.1
2017-Jul-16 14:43N 36°32' W 006°17'0 0.0
2017-Jul-16 14:27N 36°32' W 006°17'0 0.0
2017-Jul-16 09:09N 36°32' W 006°17'0 0.0
2017-Jul-16 08:59N 36°32' W 006°17'0 0.0
2017-Jul-16 07:23N 36°32' W 006°17'0 0.0
2017-Jul-16 06:53N 36°32' W 006°17'0 0.0
2017-Jul-16 06:30N 36°32' W 006°17'0 0.0
2017-Jul-16 05:47N 36°32' W 006°17'0 0.2
2017-Jul-16 05:30N 36°32' W 006°17'1 2.3
2017-Jul-16 05:00N 36°33' W 006°17'2511.4
2017-Jul-16 02:51N 36°09' W 006°22'1116.2
2017-Jul-16 02:10N 35°59' W 006°16'27315.6
2017-Jul-15 08:40N 37°20' W 000°52'316.7
2017-Jul-15 08:28N 37°23' W 000°49'1016.6
2017-Jul-15 07:51N 37°30' W 000°40'616.8
2017-Jul-15 07:30N 37°34' W 000°34'917.2
2017-Jul-15 07:00N 37°40' W 000°27'917.3
2017-Jul-15 06:30N 37°48' W 000°22'917.5
2017-Jul-15 06:00N 37°55' W 000°15'917.6
2017-Jul-15 05:30N 38°02' W 000°09'1617.2
2017-Jul-15 04:35N 38°15' E 000°02'717.1
2017-Jul-15 04:12N 38°21' E 000°06'317.2
2017-Jul-15 04:00N 38°24' E 000°08'1217.1
2017-Jul-15 03:17N 38°35' E 000°17'1216.9
2017-Jul-15 02:35N 38°45' E 000°24'116.9
2017-Jul-15 02:30N 38°46' E 000°25'917.0
2017-Jul-15 01:59N 38°54' E 000°30'1417.0
2017-Jul-15 01:08N 39°06' E 000°39'317.1
2017-Jul-15 00:59N 39°09' E 000°41'817.3
2017-Jul-15 00:30N 39°16' E 000°46'1017.2
2017-Jul-14 23:55N 39°25' E 000°52'1817.0
2017-Jul-14 22:52N 39°40' E 001°03'616.9
2017-Jul-14 22:30N 39°46' E 001°07'816.5
2017-Jul-14 22:00N 39°54' E 001°11'816.4
2017-Jul-14 21:30N 40°01' E 001°15'816.5
2017-Jul-14 21:00N 40°09' E 001°20'816.8
2017-Jul-14 20:30N 40°16' E 001°24'917.0
2017-Jul-14 20:00N 40°23' E 001°30'917.4
2017-Jul-14 19:30N 40°31' E 001°36'917.3
2017-Jul-14 19:00N 40°38' E 001°42'917.2
2017-Jul-14 18:30N 40°45' E 001°49'917.1
2017-Jul-14 18:00N 40°53' E 001°54'817.2
2017-Jul-14 17:30N 41°00' E 001°60'917.4
2017-Jul-14 17:00N 41°08' E 002°06'1014.7
2017-Jul-14 16:21N 41°17' E 002°11'410.2
2017-Jul-14 15:58N 41°21' E 002°10'1 0.1
2017-Jul-14 06:03N 41°21' E 002°10'0 0.0
2017-Jul-14 05:56N 41°21' E 002°10'0 0.6
2017-Jul-14 05:29N 41°21' E 002°10'2 3.2
2017-Jul-14 05:00N 41°19' E 002°10'3 6.5
2017-Jul-14 04:30N 41°16' E 002°12'4 7.6
2017-Jul-14 04:00N 41°16' E 002°17'815.3
2017-Jul-14 03:30N 41°20' E 002°26'916.6
2017-Jul-14 02:59N 41°24' E 002°36'1016.5
2017-Jul-14 02:23N 41°29' E 002°47'816.6
2017-Jul-14 01:55N 41°32' E 002°57'917.0
2017-Jul-14 01:23N 41°37' E 003°08'816.6
2017-Jul-14 00:54N 41°40' E 003°17'9417.4
2017-Jul-13 19:30N 42°29' E 005°05'917.1
2017-Jul-13 19:00N 42°33' E 005°15'817.1
2017-Jul-13 18:30N 42°38' E 005°25'917.1
2017-Jul-13 18:00N 42°42' E 005°35'1117.2
2017-Jul-13 17:23N 42°48' E 005°47'1815.3
2017-Jul-13 16:12N 43°04' E 005°59'211.1
2017-Jul-13 16:00N 43°05' E 005°56'2 3.4
2017-Jul-13 15:30N 43°07' E 005°56'0 0.0
2017-Jul-13 15:00N 43°07' E 005°56'0 0.0
2017-Jul-13 14:30N 43°07' E 005°56'0 0.0
2017-Jul-13 14:00N 43°07' E 005°56'0 0.0
2017-Jul-13 13:29N 43°07' E 005°56'0 0.0
2017-Jul-13 12:58N 43°07' E 005°56'0 0.0
2017-Jul-13 12:30N 43°07' E 005°56'0 0.0
2017-Jul-13 12:00N 43°07' E 005°56'0 0.0
2017-Jul-13 11:28N 43°07' E 005°56'0 0.0
2017-Jul-13 10:58N 43°07' E 005°56'0 0.0
2017-Jul-13 10:27N 43°07' E 005°56'0 0.0
2017-Jul-13 10:00N 43°07' E 005°56'0 0.0
2017-Jul-13 09:30N 43°07' E 005°56'0 0.0
2017-Jul-13 09:00N 43°07' E 005°56'0 0.0
2017-Jul-13 08:30N 43°07' E 005°56'0 0.0
2017-Jul-13 07:59N 43°07' E 005°56'0 0.0
2017-Jul-13 07:30N 43°07' E 005°56'0 0.0
2017-Jul-13 07:01N 43°07' E 005°56'1 1.6
2017-Jul-13 06:31N 43°07' E 005°55'0 0.7
2017-Jul-13 06:00N 43°06' E 005°55'3 5.8
2017-Jul-13 05:30N 43°05' E 005°58'2211.7
2017-Jul-13 03:39N 42°54' E 006°24'315.3
2017-Jul-13 03:28N 42°54' E 006°28'715.7
2017-Jul-13 03:00N 42°57' E 006°36'816.4
2017-Jul-13 02:30N 43°01' E 006°46'816.4
2017-Jul-13 02:00N 43°06' E 006°56'816.7
2017-Jul-13 01:30N 43°10' E 007°05'816.7
2017-Jul-13 01:00N 43°14' E 007°15'816.7
2017-Jul-13 00:30N 43°19' E 007°25'917.0
2017-Jul-12 23:59N 43°25' E 007°34'817.0
2017-Jul-12 23:30N 43°28' E 007°44'917.1
2017-Jul-12 23:00N 43°33' E 007°54'817.1
2017-Jul-12 22:30N 43°37' E 008°04'917.1
2017-Jul-12 21:59N 43°42' E 008°15'817.0
2017-Jul-12 21:30N 43°47' E 008°24'612.8
2017-Jul-12 21:01N 43°50' E 008°31'612.9
2017-Jul-12 20:30N 43°54' E 008°38'612.8
2017-Jul-12 20:01N 43°58' E 008°46'4266.6
2017-Jul-12 20:00N 43°54' E 008°42'1122.1 060 / 71013.310.8 24.022.524.0
2017-Jul-12 19:31N 44°01' E 008°53'612.6
2017-Jul-12 19:01N 44°05' E 009°00'612.6
2017-Jul-12 18:31N 44°08' E 009°07'612.4
2017-Jul-12 18:01N 44°12' E 009°14'510.8
2017-Jul-12 17:30N 44°16' E 009°19'510.3
2017-Jul-12 17:00N 44°20' E 009°14'0 0.2
2017-Jul-12 15:47N 44°20' E 009°14'0 0.0
2017-Jul-12 15:23N 44°20' E 009°14'0 0.0
2017-Jul-12 14:53N 44°20' E 009°14'0 0.0
2017-Jul-12 13:56N 44°20' E 009°14'0 0.0
2017-Jul-12 12:32N 44°20' E 009°14'0 0.0
2017-Jul-12 12:05N 44°20' E 009°14'0 0.0
2017-Jul-12 11:32N 44°20' E 009°14'0 0.1
2017-Jul-12 11:26N 44°20' E 009°14'0 0.1
2017-Jul-12 10:47N 44°20' E 009°14'0 0.0
2017-Jul-12 09:05N 44°20' E 009°14'0 0.0
2017-Jul-12 07:59N 44°20' E 009°14'0 0.0
2017-Jul-12 07:29N 44°20' E 009°14'0 0.1
2017-Jul-12 06:47N 44°20' E 009°14'0 0.1
2017-Jul-12 06:17N 44°20' E 009°14'0 0.0
2017-Jul-12 05:00N 44°20' E 009°14'3 7.0
2017-Jul-12 04:30N 44°18' E 009°18'510.1
2017-Jul-12 03:58N 44°12' E 009°19'612.0
2017-Jul-12 03:30N 44°07' E 009°17'511.0
2017-Jul-12 03:00N 44°03' E 009°11'611.8
2017-Jul-12 02:30N 44°02' E 009°03'611.7
2017-Jul-12 02:00N 44°01' E 008°55'611.5
2017-Jul-12 01:30N 43°60' E 008°47'5 9.7
2017-Jul-12 01:00N 43°56' E 008°43'510.3
2017-Jul-12 00:30N 43°51' E 008°43'510.1
2017-Jul-12 00:00N 43°46' E 008°43'5 9.2
2017-Jul-11 23:30N 43°45' E 008°49'510.6
2017-Jul-11 23:00N 43°45' E 008°56'510.7
2017-Jul-11 22:30N 43°44' E 009°03'510.5
2017-Jul-11 22:00N 43°44' E 009°11'510.4
2017-Jul-11 21:30N 43°44' E 009°18'5 9.9
2017-Jul-11 21:00N 43°42' E 009°24'510.1
2017-Jul-11 20:30N 43°40' E 009°30'510.4
2017-Jul-11 20:00N 43°38' E 009°37'510.4
2017-Jul-11 19:30N 43°36' E 009°44'510.5
2017-Jul-11 19:00N 43°34' E 009°51'510.5
2017-Jul-11 18:30N 43°33' E 009°58'510.4
2017-Jul-11 18:00N 43°31' E 010°04'510.2
2017-Jul-11 17:30N 43°31' E 010°11'5 9.2
2017-Jul-11 17:00N 43°33' E 010°17'1 1.0
2017-Jul-11 16:27N 43°33' E 010°18'0 0.0
2017-Jul-11 15:59N 43°33' E 010°18'0 0.0
2017-Jul-11 15:29N 43°33' E 010°18'0 0.0
2017-Jul-11 14:53N 43°33' E 010°18'0 0.0
2017-Jul-11 14:26N 43°33' E 010°18'0 0.0
2017-Jul-11 13:59N 43°33' E 010°18'0 0.0
2017-Jul-11 13:29N 43°33' E 010°18'0 0.0
2017-Jul-11 12:59N 43°33' E 010°18'0 0.0
2017-Jul-11 12:29N 43°33' E 010°18'0 0.0
2017-Jul-11 12:00N 43°33' E 010°18'0 0.0
2017-Jul-11 11:30N 43°33' E 010°18'0 0.0
2017-Jul-11 11:00N 43°33' E 010°18'0 0.0
2017-Jul-11 10:30N 43°33' E 010°18'0 0.0
2017-Jul-11 10:00N 43°33' E 010°18'0 0.0
2017-Jul-11 09:30N 43°33' E 010°18'0 0.0
2017-Jul-11 09:00N 43°33' E 010°18'0 0.0
2017-Jul-11 08:30N 43°33' E 010°18'0 0.0
2017-Jul-11 08:00N 43°33' E 010°18'0 0.0
2017-Jul-11 07:30N 43°33' E 010°18'0 0.0
2017-Jul-11 07:00N 43°33' E 010°18'0 0.0
2017-Jul-11 06:30N 43°33' E 010°18'0 0.0
2017-Jul-11 05:51N 43°33' E 010°18'0 0.0
2017-Jul-11 05:27N 43°33' E 010°18'0 0.0
2017-Jul-11 05:00N 43°33' E 010°18'0 0.1
2017-Jul-11 04:30N 43°33' E 010°18'1 2.2
2017-Jul-11 04:00N 43°32' E 010°17'5 9.3
2017-Jul-11 03:30N 43°29' E 010°12'714.6
2017-Jul-11 03:00N 43°22' E 010°10'713.9
2017-Jul-11 02:31N 43°15' E 010°07'  

Dump ship's entire track history